sensor_id;sensor_type;location;lat;lon;timestamp;pressure;altitude;pressure_sealevel;temperature;humidity
10462;BME280;5278;42.656;23.374;2022-10-28T00:01:45;95856.91;;;14.23;67.22
10462;BME280;5278;42.656;23.374;2022-10-28T00:04:12;95868.34;;;14.22;66.77
10462;BME280;5278;42.656;23.374;2022-10-28T00:06:39;95869.66;;;14.18;66.73
10462;BME280;5278;42.656;23.374;2022-10-28T00:09:07;95865.72;;;14.22;66.43
10462;BME280;5278;42.656;23.374;2022-10-28T00:11:34;95866.88;;;14.19;66.38
10462;BME280;5278;42.656;23.374;2022-10-28T00:14:03;95863.94;;;14.14;66.71
10462;BME280;5278;42.656;23.374;2022-10-28T00:16:32;95867.03;;;14.18;66.63
10462;BME280;5278;42.656;23.374;2022-10-28T00:19:01;95865.72;;;14.06;66.92
10462;BME280;5278;42.656;23.374;2022-10-28T00:21:29;95867.72;;;14.04;67.03
10462;BME280;5278;42.656;23.374;2022-10-28T00:23:57;95857.56;;;14.01;67.43
10462;BME280;5278;42.656;23.374;2022-10-28T00:26:26;95860.53;;;13.90;68.34
10462;BME280;5278;42.656;23.374;2022-10-28T00:28:54;95846.63;;;13.81;68.26
10462;BME280;5278;42.656;23.374;2022-10-28T00:31:23;95859.72;;;13.89;68.97
10462;BME280;5278;42.656;23.374;2022-10-28T00:33:51;95857.25;;;13.88;68.67
10462;BME280;5278;42.656;23.374;2022-10-28T00:36:19;95862.50;;;13.79;69.28
10462;BME280;5278;42.656;23.374;2022-10-28T00:38:48;95861.34;;;13.74;69.40
10462;BME280;5278;42.656;23.374;2022-10-28T00:41:17;95855.94;;;13.67;68.56
10462;BME280;5278;42.656;23.374;2022-10-28T00:43:47;95850.09;;;13.73;68.50
10462;BME280;5278;42.656;23.374;2022-10-28T00:46:19;95853.66;;;13.72;67.59
10462;BME280;5278;42.656;23.374;2022-10-28T00:48:52;95846.16;;;13.61;67.42
10462;BME280;5278;42.656;23.374;2022-10-28T00:51:21;95857.91;;;13.65;66.58
10462;BME280;5278;42.656;23.374;2022-10-28T00:53:51;95858.22;;;13.62;66.61
10462;BME280;5278;42.656;23.374;2022-10-28T00:56:21;95854.81;;;13.54;66.66
10462;BME280;5278;42.656;23.374;2022-10-28T00:58:55;95854.78;;;13.46;67.06
10462;BME280;5278;42.656;23.374;2022-10-28T01:01:22;95851.84;;;13.41;67.09
10462;BME280;5278;42.656;23.374;2022-10-28T01:03:49;95869.28;;;13.32;67.59
10462;BME280;5278;42.656;23.374;2022-10-28T01:06:17;95855.41;;;13.31;67.18
10462;BME280;5278;42.656;23.374;2022-10-28T01:08:45;95858.84;;;13.32;67.53
10462;BME280;5278;42.656;23.374;2022-10-28T01:11:32;95851.66;;;13.26;67.65
10462;BME280;5278;42.656;23.374;2022-10-28T01:14:19;95856.88;;;13.26;67.72
10462;BME280;5278;42.656;23.374;2022-10-28T01:16:57;95851.97;;;13.23;67.46
10462;BME280;5278;42.656;23.374;2022-10-28T01:19:58;95863.53;;;13.20;68.57
10462;BME280;5278;42.656;23.374;2022-10-28T01:22:37;95858.31;;;13.20;68.57
10462;BME280;5278;42.656;23.374;2022-10-28T01:25:29;95855.69;;;13.12;68.89
10462;BME280;5278;42.656;23.374;2022-10-28T01:28:16;95824.31;;;12.88;69.04
10462;BME280;5278;42.656;23.374;2022-10-28T01:31:26;95853.88;;;13.05;68.88
10462;BME280;5278;42.656;23.374;2022-10-28T01:34:07;95853.06;;;13.04;69.02
10462;BME280;5278;42.656;23.374;2022-10-28T01:36:39;95856.13;;;13.00;69.12
10462;BME280;5278;42.656;23.374;2022-10-28T01:39:14;95853.69;;;12.98;69.17
10462;BME280;5278;42.656;23.374;2022-10-28T01:41:49;95856.13;;;13.00;69.31
10462;BME280;5278;42.656;23.374;2022-10-28T01:44:23;95852.19;;;12.95;69.58
10462;BME280;5278;42.656;23.374;2022-10-28T01:46:59;95849.91;;;12.92;69.45
10462;BME280;5278;42.656;23.374;2022-10-28T01:49:31;95865.22;;;12.95;69.70
10462;BME280;5278;42.656;23.374;2022-10-28T01:52:06;95866.06;;;12.96;69.69
10462;BME280;5278;42.656;23.374;2022-10-28T01:54:37;95866.06;;;12.96;70.14
10462;BME280;5278;42.656;23.374;2022-10-28T01:57:06;95870.44;;;12.95;69.57
10462;BME280;5278;42.656;23.374;2022-10-28T01:59:33;95868.16;;;12.92;69.32
10462;BME280;5278;42.656;23.374;2022-10-28T02:02:02;95871.91;;;12.90;70.04
10462;BME280;5278;42.656;23.374;2022-10-28T02:04:29;95877.94;;;12.90;70.24
10462;BME280;5278;42.656;23.374;2022-10-28T02:06:58;95866.53;;;12.91;70.11
10462;BME280;5278;42.656;23.374;2022-10-28T02:09:35;95871.72;;;12.83;69.98
10462;BME280;5278;42.656;23.374;2022-10-28T02:12:19;95872.19;;;12.79;70.01
10462;BME280;5278;42.656;23.374;2022-10-28T02:15:17;95878.00;;;12.65;70.55
10462;BME280;5278;42.656;23.374;2022-10-28T02:18:22;95861.13;;;12.51;71.02
10462;BME280;5278;42.656;23.374;2022-10-28T02:20:54;95874.47;;;12.40;71.79
10462;BME280;5278;42.656;23.374;2022-10-28T02:23:27;95877.66;;;12.34;72.20
10462;BME280;5278;42.656;23.374;2022-10-28T02:26:01;95881.84;;;12.27;72.54
10462;BME280;5278;42.656;23.374;2022-10-28T02:28:37;95881.31;;;12.15;73.56
10462;BME280;5278;42.656;23.374;2022-10-28T02:31:17;95877.88;;;12.15;73.41
10462;BME280;5278;42.656;23.374;2022-10-28T02:33:49;95883.09;;;12.15;73.69
10462;BME280;5278;42.656;23.374;2022-10-28T02:36:19;95879.66;;;12.14;73.36
10462;BME280;5278;42.656;23.374;2022-10-28T02:38:49;95882.72;;;12.10;73.83
10462;BME280;5278;42.656;23.374;2022-10-28T02:41:20;95880.97;;;11.92;74.54
10462;BME280;5278;42.656;23.374;2022-10-28T02:43:52;95880.09;;;11.84;74.85
10462;BME280;5278;42.656;23.374;2022-10-28T02:46:21;95887.59;;;11.87;75.34
10462;BME280;5278;42.656;23.374;2022-10-28T02:48:53;95877.81;;;11.71;75.45
10462;BME280;5278;42.656;23.374;2022-10-28T02:51:26;95884.09;;;11.78;75.83
10462;BME280;5278;42.656;23.374;2022-10-28T02:54:00;95882.91;;;11.73;76.19
10462;BME280;5278;42.656;23.374;2022-10-28T02:56:29;95883.19;;;11.70;76.33
10462;BME280;5278;42.656;23.374;2022-10-28T02:58:58;95873.31;;;11.73;76.51
10462;BME280;5278;42.656;23.374;2022-10-28T03:01:25;95876.97;;;11.80;76.24
10462;BME280;5278;42.656;23.374;2022-10-28T03:03:53;95883.34;;;11.86;75.80
10462;BME280;5278;42.656;23.374;2022-10-28T03:06:20;95891.69;;;11.89;75.83
10462;BME280;5278;42.656;23.374;2022-10-28T03:08:47;95884.25;;;11.94;76.01
10462;BME280;5278;42.656;23.374;2022-10-28T03:11:14;95886.38;;;11.99;75.61
10462;BME280;5278;42.656;23.374;2022-10-28T03:13:40;95888.53;;;12.03;75.17
10462;BME280;5278;42.656;23.374;2022-10-28T03:16:08;95884.97;;;12.04;75.30
10462;BME280;5278;42.656;23.374;2022-10-28T03:18:34;95878.63;;;12.07;74.91
10462;BME280;5278;42.656;23.374;2022-10-28T03:21:03;95868.41;;;12.14;74.70
10462;BME280;5278;42.656;23.374;2022-10-28T03:23:30;95875.91;;;12.17;74.71
10462;BME280;5278;42.656;23.374;2022-10-28T03:25:57;95872.72;;;12.23;74.21
10462;BME280;5278;42.656;23.374;2022-10-28T03:28:23;95886.41;;;12.25;73.77
10462;BME280;5278;42.656;23.374;2022-10-28T03:30:50;95873.31;;;12.17;74.22
10462;BME280;5278;42.656;23.374;2022-10-28T03:33:17;95879.72;;;12.22;74.27
10462;BME280;5278;42.656;23.374;2022-10-28T03:35:44;95885.88;;;12.21;74.25
10462;BME280;5278;42.656;23.374;2022-10-28T03:38:12;95884.28;;;12.20;74.09
10462;BME280;5278;42.656;23.374;2022-10-28T03:40:39;95888.13;;;12.16;74.04
10462;BME280;5278;42.656;23.374;2022-10-28T03:43:05;95888.31;;;12.15;74.07
10462;BME280;5278;42.656;23.374;2022-10-28T03:45:32;95885.63;;;12.06;74.40
10462;BME280;5278;42.656;23.374;2022-10-28T03:47:59;95896.72;;;12.08;74.58
10462;BME280;5278;42.656;23.374;2022-10-28T03:50:26;95892.41;;;11.99;74.53
10462;BME280;5278;42.656;23.374;2022-10-28T03:52:53;95886.91;;;12.02;74.94
10462;BME280;5278;42.656;23.374;2022-10-28T03:55:21;95881.00;;;12.00;74.56
10462;BME280;5278;42.656;23.374;2022-10-28T03:57:50;95892.06;;;11.94;74.88
10462;BME280;5278;42.656;23.374;2022-10-28T04:00:17;95884.88;;;11.96;75.01
10462;BME280;5278;42.656;23.374;2022-10-28T04:02:48;95872.94;;;11.86;74.79
10462;BME280;5278;42.656;23.374;2022-10-28T04:05:16;95887.00;;;11.93;75.08
10462;BME280;5278;42.656;23.374;2022-10-28T04:07:42;95891.53;;;11.91;74.90
10462;BME280;5278;42.656;23.374;2022-10-28T04:10:09;95893.34;;;11.90;75.15
10462;BME280;5278;42.656;23.374;2022-10-28T04:12:38;95897.19;;;11.86;75.21
10462;BME280;5278;42.656;23.374;2022-10-28T04:15:05;95895.56;;;11.85;75.62
10462;BME280;5278;42.656;23.374;2022-10-28T04:17:32;95891.69;;;11.89;75.48
10462;BME280;5278;42.656;23.374;2022-10-28T04:19:59;95895.03;;;11.82;75.91
10462;BME280;5278;42.656;23.374;2022-10-28T04:22:26;95896.53;;;11.84;75.40
10462;BME280;5278;42.656;23.374;2022-10-28T04:24:53;95897.19;;;11.86;75.38
10462;BME280;5278;42.656;23.374;2022-10-28T04:27:20;95896.91;;;11.89;75.16
10462;BME280;5278;42.656;23.374;2022-10-28T04:29:50;95895.56;;;11.85;75.57
10462;BME280;5278;42.656;23.374;2022-10-28T04:32:17;95891.78;;;11.80;75.75
10462;BME280;5278;42.656;23.374;2022-10-28T04:34:44;95892.28;;;11.83;75.77
10462;BME280;5278;42.656;23.374;2022-10-28T04:37:11;95896.06;;;11.89;75.79
10462;BME280;5278;42.656;23.374;2022-10-28T04:39:38;95895.94;;;11.90;75.34
10462;BME280;5278;42.656;23.374;2022-10-28T04:42:04;95891.69;;;11.89;75.17
10462;BME280;5278;42.656;23.374;2022-10-28T04:44:31;95891.38;;;11.92;74.64
10462;BME280;5278;42.656;23.374;2022-10-28T04:46:59;95890.41;;;11.93;74.77
10462;BME280;5278;42.656;23.374;2022-10-28T04:49:28;95893.03;;;11.93;75.04
10462;BME280;5278;42.656;23.374;2022-10-28T04:51:54;95893.69;;;11.95;73.98
10462;BME280;5278;42.656;23.374;2022-10-28T04:54:21;95889.38;;;11.86;73.66
10462;BME280;5278;42.656;23.374;2022-10-28T04:56:48;95893.94;;;11.84;74.09
10462;BME280;5278;42.656;23.374;2022-10-28T04:59:15;95893.97;;;11.92;74.23
10462;BME280;5278;42.656;23.374;2022-10-28T05:01:41;95894.66;;;11.94;73.46
10462;BME280;5278;42.656;23.374;2022-10-28T05:04:09;95892.28;;;11.83;74.14
10462;BME280;5278;42.656;23.374;2022-10-28T05:06:36;95895.84;;;11.82;73.85
10462;BME280;5278;42.656;23.374;2022-10-28T05:09:03;95892.28;;;11.83;73.83
10462;BME280;5278;42.656;23.374;2022-10-28T05:11:30;95899.88;;;11.94;73.40
10462;BME280;5278;42.656;23.374;2022-10-28T05:13:57;95899.47;;;12.07;72.79
10462;BME280;5278;42.656;23.374;2022-10-28T05:16:25;95900.69;;;12.21;72.14
10462;BME280;5278;42.656;23.374;2022-10-28T05:18:52;95892.69;;;12.40;71.51
10462;BME280;5278;42.656;23.374;2022-10-28T05:21:20;95904.59;;;12.76;70.60
10462;BME280;5278;42.656;23.374;2022-10-28T05:23:47;95897.31;;;13.14;69.14
10462;BME280;5278;42.656;23.374;2022-10-28T05:26:14;95906.06;;;13.55;67.32
10462;BME280;5278;42.656;23.374;2022-10-28T05:28:41;95902.34;;;13.90;65.93
10462;BME280;5278;42.656;23.374;2022-10-28T05:31:08;95902.34;;;14.38;63.99
10462;BME280;5278;42.656;23.374;2022-10-28T05:33:35;95901.84;;;14.90;61.53
10462;BME280;5278;42.656;23.374;2022-10-28T05:36:02;95897.03;;;15.48;59.23
10462;BME280;5278;42.656;23.374;2022-10-28T05:38:32;95908.94;;;16.05;57.02
10462;BME280;5278;42.656;23.374;2022-10-28T05:40:58;95898.41;;;16.65;55.04
10462;BME280;5278;42.656;23.374;2022-10-28T05:43:25;95899.84;;;17.26;52.27
10462;BME280;5278;42.656;23.374;2022-10-28T05:45:52;95896.63;;;17.81;50.21
10462;BME280;5278;42.656;23.374;2022-10-28T05:48:19;95900.94;;;18.31;48.90
10462;BME280;5278;42.656;23.374;2022-10-28T05:50:46;95904.53;;;18.79;47.05
10462;BME280;5278;42.656;23.374;2022-10-28T05:53:13;95908.25;;;19.26;45.90
10462;BME280;5278;42.656;23.374;2022-10-28T05:55:41;95908.59;;;19.57;44.48
10462;BME280;5278;42.656;23.374;2022-10-28T05:58:08;95916.44;;;20.11;42.83
10462;BME280;5278;42.656;23.374;2022-10-28T06:00:35;95910.19;;;20.32;42.03
10462;BME280;5278;42.656;23.374;2022-10-28T06:03:03;95918.50;;;20.55;41.62
10462;BME280;5278;42.656;23.374;2022-10-28T06:05:33;95911.97;;;20.91;40.38
10462;BME280;5278;42.656;23.374;2022-10-28T06:08:00;95912.34;;;21.14;40.06
10462;BME280;5278;42.656;23.374;2022-10-28T06:10:27;95916.38;;;21.23;39.75
10462;BME280;5278;42.656;23.374;2022-10-28T06:12:58;95920.19;;;21.34;39.77
10462;BME280;5278;42.656;23.374;2022-10-28T06:15:24;95929.06;;;21.53;39.11
10462;BME280;5278;42.656;23.374;2022-10-28T06:17:51;95904.19;;;21.16;39.09
10462;BME280;5278;42.656;23.374;2022-10-28T06:20:18;95924.97;;;20.73;40.03
10462;BME280;5278;42.656;23.374;2022-10-28T06:22:46;95938.59;;;20.70;40.82
10462;BME280;5278;42.656;23.374;2022-10-28T06:25:13;95938.41;;;20.58;40.84
10462;BME280;5278;42.656;23.374;2022-10-28T06:27:41;95942.06;;;20.63;40.85
10462;BME280;5278;42.656;23.374;2022-10-28T06:30:10;95933.34;;;20.56;40.78
10462;BME280;5278;42.656;23.374;2022-10-28T06:32:37;95927.19;;;20.82;40.22
10462;BME280;5278;42.656;23.374;2022-10-28T06:35:04;95926.56;;;21.20;40.18
10462;BME280;5278;42.656;23.374;2022-10-28T06:37:31;95933.78;;;21.51;39.36
10462;BME280;5278;42.656;23.374;2022-10-28T06:39:58;95921.94;;;22.04;38.44
10462;BME280;5278;42.656;23.374;2022-10-28T06:42:25;95931.22;;;22.69;37.40
10462;BME280;5278;42.656;23.374;2022-10-28T06:44:52;95935.06;;;22.98;36.94
10462;BME280;5278;42.656;23.374;2022-10-28T06:47:20;95926.13;;;23.54;36.24
10462;BME280;5278;42.656;23.374;2022-10-28T06:49:47;95917.84;;;23.92;35.82
10462;BME280;5278;42.656;23.374;2022-10-28T06:52:13;95920.44;;;24.28;34.68
10462;BME280;5278;42.656;23.374;2022-10-28T06:54:40;95921.53;;;24.74;33.70
10462;BME280;5278;42.656;23.374;2022-10-28T06:57:08;95918.16;;;25.37;32.51
10462;BME280;5278;42.656;23.374;2022-10-28T06:59:34;95925.78;;;25.56;31.82
10462;BME280;5278;42.656;23.374;2022-10-28T07:02:01;95918.22;;;25.02;31.93
10462;BME280;5278;42.656;23.374;2022-10-28T07:04:30;95927.47;;;24.99;32.34
10462;BME280;5278;42.656;23.374;2022-10-28T07:06:58;95916.91;;;25.27;32.41
10462;BME280;5278;42.656;23.374;2022-10-28T07:09:25;95921.75;;;25.42;31.88
10462;BME280;5278;42.656;23.374;2022-10-28T07:11:52;95923.72;;;25.58;31.28
10462;BME280;5278;42.656;23.374;2022-10-28T07:14:19;95920.75;;;25.83;31.08
10462;BME280;5278;42.656;23.374;2022-10-28T07:16:46;95924.41;;;25.94;30.76
10462;BME280;5278;42.656;23.374;2022-10-28T07:19:12;95924.59;;;26.32;30.75
10462;BME280;5278;42.656;23.374;2022-10-28T07:21:40;95920.19;;;26.88;29.81
10462;BME280;5278;42.656;23.374;2022-10-28T07:24:07;95919.03;;;27.39;28.96
10462;BME280;5278;42.656;23.374;2022-10-28T07:26:34;95923.47;;;27.72;28.85
10462;BME280;5278;42.656;23.374;2022-10-28T07:29:01;95916.50;;;28.14;28.50
10462;BME280;5278;42.656;23.374;2022-10-28T07:31:28;95908.56;;;28.56;27.32
10462;BME280;5278;42.656;23.374;2022-10-28T07:33:56;95910.94;;;29.27;26.90
10462;BME280;5278;42.656;23.374;2022-10-28T07:36:22;95915.63;;;29.41;26.46
10462;BME280;5278;42.656;23.374;2022-10-28T07:38:51;95916.53;;;29.67;25.89
10462;BME280;5278;42.656;23.374;2022-10-28T07:41:19;95910.56;;;30.32;25.25
10462;BME280;5278;42.656;23.374;2022-10-28T07:43:46;95907.09;;;30.88;24.38
10462;BME280;5278;42.656;23.374;2022-10-28T07:46:13;95910.06;;;31.11;24.29
10462;BME280;5278;42.656;23.374;2022-10-28T07:48:40;95914.59;;;31.26;23.73
10462;BME280;5278;42.656;23.374;2022-10-28T07:51:09;95912.34;;;31.48;23.47
10462;BME280;5278;42.656;23.374;2022-10-28T07:53:36;95907.88;;;31.98;23.26
10462;BME280;5278;42.656;23.374;2022-10-28T07:56:06;95911.94;;;32.39;22.67
10462;BME280;5278;42.656;23.374;2022-10-28T07:58:34;95911.25;;;32.68;22.26
10462;BME280;5278;42.656;23.374;2022-10-28T08:01:02;95908.81;;;32.95;22.05
10462;BME280;5278;42.656;23.374;2022-10-28T08:03:29;95909.69;;;33.19;21.59
10462;BME280;5278;42.656;23.374;2022-10-28T08:06:00;95910.06;;;33.37;21.62
10462;BME280;5278;42.656;23.374;2022-10-28T08:08:27;95897.44;;;33.56;21.30
10462;BME280;5278;42.656;23.374;2022-10-28T08:10:54;95908.00;;;33.76;21.41
10462;BME280;5278;42.656;23.374;2022-10-28T08:13:22;95910.75;;;33.71;21.71
10462;BME280;5278;42.656;23.374;2022-10-28T08:15:52;95902.94;;;34.12;20.98
10462;BME280;5278;42.656;23.374;2022-10-28T08:18:20;95910.47;;;34.34;20.32
10462;BME280;5278;42.656;23.374;2022-10-28T08:20:47;95907.28;;;34.64;20.42
10462;BME280;5278;42.656;23.374;2022-10-28T08:23:14;95905.19;;;34.61;20.05
10462;BME280;5278;42.656;23.374;2022-10-28T08:25:47;95903.44;;;34.70;20.46
10462;BME280;5278;42.656;23.374;2022-10-28T08:28:14;95910.75;;;34.70;20.32
10462;BME280;5278;42.656;23.374;2022-10-28T08:30:42;95906.75;;;35.13;19.64
10462;BME280;5278;42.656;23.374;2022-10-28T08:33:09;95913.50;;;35.29;19.60
10462;BME280;5278;42.656;23.374;2022-10-28T08:35:36;95912.59;;;35.20;19.42
10462;BME280;5278;42.656;23.374;2022-10-28T08:38:03;95908.28;;;35.33;19.83
10462;BME280;5278;42.656;23.374;2022-10-28T08:40:34;95882.25;;;35.37;19.70
10462;BME280;5278;42.656;23.374;2022-10-28T08:43:17;95902.22;;;35.68;19.27
10462;BME280;5278;42.656;23.374;2022-10-28T08:45:52;95907.63;;;35.96;19.22
10462;BME280;5278;42.656;23.374;2022-10-28T08:48:29;95899.69;;;35.58;19.27
10462;BME280;5278;42.656;23.374;2022-10-28T08:50:59;95898.78;;;35.49;19.31
10462;BME280;5278;42.656;23.374;2022-10-28T08:53:29;95906.19;;;35.44;19.16
10462;BME280;5278;42.656;23.374;2022-10-28T08:56:06;95893.88;;;35.78;19.00
10462;BME280;5278;42.656;23.374;2022-10-28T08:58:41;95895.59;;;35.74;19.44
10462;BME280;5278;42.656;23.374;2022-10-28T09:01:18;95890.44;;;36.00;18.59
10462;BME280;5278;42.656;23.374;2022-10-28T09:03:49;95901.38;;;36.45;18.90
10462;BME280;5278;42.656;23.374;2022-10-28T09:06:17;95896.53;;;36.55;18.52
10462;BME280;5278;42.656;23.374;2022-10-28T09:08:47;95885.63;;;36.11;18.31
10462;BME280;5278;42.656;23.374;2022-10-28T09:11:31;95883.72;;;36.70;18.35
10462;BME280;5278;42.656;23.374;2022-10-28T09:14:14;95884.31;;;36.89;18.16
10462;BME280;5278;42.656;23.374;2022-10-28T09:16:47;95884.25;;;36.58;18.33
10462;BME280;5278;42.656;23.374;2022-10-28T09:19:26;95885.66;;;36.33;18.32
10462;BME280;5278;42.656;23.374;2022-10-28T09:22:08;95883.56;;;36.30;18.37
10462;BME280;5278;42.656;23.374;2022-10-28T09:24:44;95868.53;;;36.24;18.55
10462;BME280;5278;42.656;23.374;2022-10-28T09:30:13;95868.69;;;36.86;18.54
10462;BME280;5278;42.656;23.374;2022-10-28T09:32:52;95864.91;;;37.26;18.19
10462;BME280;5278;42.656;23.374;2022-10-28T09:35:23;95850.69;;;37.60;17.73
10462;BME280;5278;42.656;23.374;2022-10-28T09:37:56;95851.00;;;37.59;17.52
10462;BME280;5278;42.656;23.374;2022-10-28T09:40:27;95844.78;;;37.58;17.36
10462;BME280;5278;42.656;23.374;2022-10-28T09:42:59;95845.13;;;37.74;17.42
10462;BME280;5278;42.656;23.374;2022-10-28T09:45:32;95831.84;;;37.64;17.58
10462;BME280;5278;42.656;23.374;2022-10-28T09:48:09;95832.72;;;38.07;17.21
10462;BME280;5278;42.656;23.374;2022-10-28T09:50:40;95834.16;;;38.22;17.08
10462;BME280;5278;42.656;23.374;2022-10-28T09:53:13;95820.25;;;38.49;17.15
10462;BME280;5278;42.656;23.374;2022-10-28T09:55:44;95824.41;;;38.55;16.68
10462;BME280;5278;42.656;23.374;2022-10-28T09:58:13;95813.53;;;38.55;17.03
10462;BME280;5278;42.656;23.374;2022-10-28T10:00:41;95814.81;;;38.58;17.03
10462;BME280;5278;42.656;23.374;2022-10-28T10:03:10;95814.81;;;38.49;16.94
10462;BME280;5278;42.656;23.374;2022-10-28T10:05:40;95821.53;;;38.52;17.02
10462;BME280;5278;42.656;23.374;2022-10-28T10:08:11;95818.69;;;38.05;17.60
10462;BME280;5278;42.656;23.374;2022-10-28T10:10:47;95811.50;;;38.01;17.15
10462;BME280;5278;42.656;23.374;2022-10-28T10:13:16;95812.25;;;38.01;17.34
10462;BME280;5278;42.656;23.374;2022-10-28T10:15:49;95805.88;;;38.14;17.27
10462;BME280;5278;42.656;23.374;2022-10-28T10:18:21;95798.38;;;38.20;17.61
10462;BME280;5278;42.656;23.374;2022-10-28T10:20:50;95797.53;;;38.37;16.93
10462;BME280;5278;42.656;23.374;2022-10-28T10:23:25;95792.41;;;38.44;16.96
10462;BME280;5278;42.656;23.374;2022-10-28T10:25:54;95793.53;;;38.51;17.18
10462;BME280;5278;42.656;23.374;2022-10-28T10:28:22;95787.75;;;38.70;16.70
10462;BME280;5278;42.656;23.374;2022-10-28T10:30:53;95789.84;;;38.56;16.74
10462;BME280;5278;42.656;23.374;2022-10-28T10:33:27;95785.56;;;37.95;17.08
10462;BME280;5278;42.656;23.374;2022-10-28T10:35:56;95788.72;;;37.54;17.09
10462;BME280;5278;42.656;23.374;2022-10-28T10:38:25;95781.56;;;37.10;17.14
10462;BME280;5278;42.656;23.374;2022-10-28T10:40:52;95779.06;;;36.91;16.95
10462;BME280;5278;42.656;23.374;2022-10-28T10:43:22;95782.53;;;36.83;16.83
10462;BME280;5278;42.656;23.374;2022-10-28T10:45:51;95772.06;;;36.98;16.99
10462;BME280;5278;42.656;23.374;2022-10-28T10:48:18;95780.47;;;36.57;17.16
10462;BME280;5278;42.656;23.374;2022-10-28T10:50:49;95778.34;;;36.46;17.93
10462;BME280;5278;42.656;23.374;2022-10-28T10:53:19;95766.66;;;36.14;17.82
10462;BME280;5278;42.656;23.374;2022-10-28T10:55:51;95771.72;;;35.71;18.04
10462;BME280;5278;42.656;23.374;2022-10-28T10:58:21;95781.84;;;35.52;18.88
10462;BME280;5278;42.656;23.374;2022-10-28T11:00:49;95769.19;;;35.75;18.63
10462;BME280;5278;42.656;23.374;2022-10-28T11:03:20;95758.25;;;35.30;18.49
10462;BME280;5278;42.656;23.374;2022-10-28T11:05:52;95764.66;;;35.21;18.97
10462;BME280;5278;42.656;23.374;2022-10-28T11:08:27;95753.13;;;35.29;19.07
10462;BME280;5278;42.656;23.374;2022-10-28T11:11:11;95747.41;;;35.44;18.56
10462;BME280;5278;42.656;23.374;2022-10-28T11:13:39;95750.19;;;35.66;18.44
10462;BME280;5278;42.656;23.374;2022-10-28T11:16:16;95748.53;;;35.79;18.24
10462;BME280;5278;42.656;23.374;2022-10-28T11:18:45;95757.53;;;35.38;18.35
10462;BME280;5278;42.656;23.374;2022-10-28T11:21:37;95747.84;;;34.96;18.94
10462;BME280;5278;42.656;23.374;2022-10-28T11:24:22;95747.06;;;34.64;19.46
10462;BME280;5278;42.656;23.374;2022-10-28T11:26:56;95739.47;;;34.52;19.32
10462;BME280;5278;42.656;23.374;2022-10-28T11:29:26;95741.44;;;34.14;20.00
10462;BME280;5278;42.656;23.374;2022-10-28T11:32:08;95741.28;;;33.73;20.16
10462;BME280;5278;42.656;23.374;2022-10-28T11:35:07;95730.81;;;33.71;20.67
10462;BME280;5278;42.656;23.374;2022-10-28T11:37:51;95734.59;;;33.52;20.78
10462;BME280;5278;42.656;23.374;2022-10-28T11:40:29;95730.50;;;33.12;20.36
10462;BME280;5278;42.656;23.374;2022-10-28T11:43:14;95733.22;;;32.35;21.28
10462;BME280;5278;42.656;23.374;2022-10-28T11:45:48;95732.66;;;32.04;21.58
10462;BME280;5278;42.656;23.374;2022-10-28T11:48:36;95725.59;;;31.41;21.82
10462;BME280;5278;42.656;23.374;2022-10-28T11:51:13;95712.88;;;31.07;22.40
10462;BME280;5278;42.656;23.374;2022-10-28T11:54:07;95733.31;;;30.98;22.70
10462;BME280;5278;42.656;23.374;2022-10-28T11:56:41;95720.00;;;30.68;22.87
10462;BME280;5278;42.656;23.374;2022-10-28T11:59:30;95720.00;;;30.63;23.02
10462;BME280;5278;42.656;23.374;2022-10-28T12:02:13;95718.69;;;30.50;23.54
10462;BME280;5278;42.656;23.374;2022-10-28T12:04:57;95706.88;;;30.36;23.42
10462;BME280;5278;42.656;23.374;2022-10-28T12:07:41;95713.88;;;30.37;23.06
10462;BME280;5278;42.656;23.374;2022-10-28T12:10:30;95708.81;;;30.00;23.90
10462;BME280;5278;42.656;23.374;2022-10-28T12:13:06;95708.53;;;29.86;23.29
10462;BME280;5278;42.656;23.374;2022-10-28T12:15:43;95705.88;;;29.91;23.56
10462;BME280;5278;42.656;23.374;2022-10-28T12:18:17;95706.41;;;29.68;21.87
10462;BME280;5278;42.656;23.374;2022-10-28T12:20:51;95704.19;;;29.35;22.32
10462;BME280;5278;42.656;23.374;2022-10-28T12:23:21;95706.81;;;29.25;23.00
10462;BME280;5278;42.656;23.374;2022-10-28T12:25:54;95699.25;;;28.96;22.73
10462;BME280;5278;42.656;23.374;2022-10-28T12:28:25;95710.00;;;28.54;23.17
10462;BME280;5278;42.656;23.374;2022-10-28T12:30:56;95701.16;;;28.44;23.81
10462;BME280;5278;42.656;23.374;2022-10-28T12:33:26;95698.50;;;28.49;23.62
10462;BME280;5278;42.656;23.374;2022-10-28T12:36:13;95698.69;;;28.00;24.22
10462;BME280;5278;42.656;23.374;2022-10-28T12:38:47;95701.84;;;27.60;24.84
10462;BME280;5278;42.656;23.374;2022-10-28T12:41:22;95692.53;;;27.36;25.02
10462;BME280;5278;42.656;23.374;2022-10-28T12:43:54;95691.31;;;27.22;25.64
10462;BME280;5278;42.656;23.374;2022-10-28T12:46:29;95693.50;;;26.98;25.41
10462;BME280;5278;42.656;23.374;2022-10-28T12:49:00;95689.69;;;26.72;25.73
10462;BME280;5278;42.656;23.374;2022-10-28T12:51:30;95696.09;;;26.49;26.17
10462;BME280;5278;42.656;23.374;2022-10-28T12:54:02;95692.06;;;26.30;26.46
10462;BME280;5278;42.656;23.374;2022-10-28T12:56:36;95686.81;;;25.80;27.02
10462;BME280;5278;42.656;23.374;2022-10-28T12:59:09;95686.16;;;25.56;27.63
10462;BME280;5278;42.656;23.374;2022-10-28T13:01:39;95691.25;;;25.29;28.17
10462;BME280;5278;42.656;23.374;2022-10-28T13:04:10;95690.44;;;25.29;28.36
10462;BME280;5278;42.656;23.374;2022-10-28T13:07:04;95681.81;;;25.22;28.58
10462;BME280;5278;42.656;23.374;2022-10-28T13:09:56;95689.78;;;25.05;29.58
10462;BME280;5278;42.656;23.374;2022-10-28T13:12:56;95685.19;;;24.89;29.82
10462;BME280;5278;42.656;23.374;2022-10-28T13:16:09;95684.66;;;24.75;29.15
10462;BME280;5278;42.656;23.374;2022-10-28T13:24:57;95689.38;;;24.10;30.01
10462;BME280;5278;42.656;23.374;2022-10-28T13:27:26;95683.22;;;23.86;30.58
10462;BME280;5278;42.656;23.374;2022-10-28T13:29:57;95685.22;;;23.79;31.13
10462;BME280;5278;42.656;23.374;2022-10-28T13:32:31;95688.31;;;23.65;30.89